createdAt,value
2019-03-20T00:02:02.377Z,9.70
2019-03-20T00:04:29.078Z,18.40
2019-03-20T00:06:55.770Z,23.20
2019-03-20T00:09:22.436Z,13.88
2019-03-20T00:11:49.124Z,8.48
2019-03-20T00:14:15.786Z,17.32
2019-03-20T00:16:42.867Z,33.98
2019-03-20T00:19:18.943Z,80.97
2019-03-20T00:21:45.638Z,17.02
2019-03-20T00:24:12.500Z,14.53
2019-03-20T00:26:39.207Z,20.25
2019-03-20T00:29:05.888Z,19.42
2019-03-20T00:31:32.555Z,21.35
2019-03-20T00:33:59.515Z,16.05
2019-03-20T00:36:26.374Z,11.03
2019-03-20T00:38:53.045Z,18.32
2019-03-20T00:41:19.943Z,13.30
2019-03-20T00:43:46.606Z,18.25
2019-03-20T00:46:14.869Z,12.55
2019-03-20T00:48:41.586Z,16.32
2019-03-20T00:51:09.353Z,15.03
2019-03-20T00:53:36.120Z,21.23
2019-03-20T00:56:03.214Z,20.08
2019-03-20T00:58:29.895Z,15.55
2019-03-20T01:00:56.682Z,13.88
2019-03-20T01:03:23.663Z,16.12
2019-03-20T01:05:50.340Z,16.15
2019-03-20T01:08:17.013Z,18.27
2019-03-20T01:10:43.721Z,26.57
2019-03-20T01:13:10.480Z,28.92
2019-03-20T01:15:37.196Z,16.67
2019-03-20T01:18:03.993Z,17.57
2019-03-20T01:20:30.674Z,13.60
2019-03-20T01:22:57.716Z,20.35
2019-03-20T01:25:24.837Z,18.40
2019-03-20T01:27:51.609Z,17.50
2019-03-20T01:30:34.711Z,19.95
2019-03-20T01:33:03.148Z,14.33
2019-03-20T01:35:30.124Z,10.55
2019-03-20T01:37:56.798Z,19.70
2019-03-20T01:40:23.557Z,17.55
2019-03-20T01:42:50.241Z,10.20
2019-03-20T01:45:17.079Z,26.52
2019-03-20T01:47:44.041Z,10.30
2019-03-20T01:50:10.683Z,21.30
2019-03-20T01:52:37.355Z,11.78
2019-03-20T01:55:04.170Z,12.53
2019-03-20T01:57:30.830Z,15.78
2019-03-20T01:59:57.506Z,12.43
2019-03-20T02:02:24.368Z,15.48
2019-03-20T02:04:51.307Z,9.50
2019-03-20T02:07:17.980Z,12.00
2019-03-20T02:09:44.889Z,9.35
2019-03-20T02:12:11.538Z,13.83
2019-03-20T02:14:38.211Z,7.90
2019-03-20T02:17:04.881Z,16.75
2019-03-20T02:19:31.822Z,17.90
2019-03-20T02:21:58.595Z,11.60
2019-03-20T02:24:43.181Z,13.60
2019-03-20T02:27:09.856Z,13.00
2019-03-20T02:29:36.641Z,13.55
2019-03-20T02:32:03.531Z,15.45
2019-03-20T02:34:30.438Z,12.50
2019-03-20T02:36:57.124Z,10.13
2019-03-20T02:39:23.814Z,15.58
2019-03-20T02:41:50.594Z,15.88
2019-03-20T02:44:17.266Z,23.92
2019-03-20T02:46:44.075Z,15.88
2019-03-20T02:49:10.757Z,12.25
2019-03-20T02:51:37.440Z,10.63
2019-03-20T02:54:04.241Z,9.60
2019-03-20T02:56:31.000Z,13.30
2019-03-20T02:58:57.681Z,9.58
2019-03-20T03:01:24.368Z,10.15
2019-03-20T03:03:51.033Z,15.15
2019-03-20T03:06:17.699Z,8.60
2019-03-20T03:08:44.399Z,14.38
2019-03-20T03:11:11.080Z,7.58
2019-03-20T03:13:37.730Z,15.30
2019-03-20T03:16:04.408Z,7.05
2019-03-20T03:18:31.175Z,16.15
2019-03-20T03:20:57.845Z,14.33
2019-03-20T03:23:25.471Z,15.48
2019-03-20T03:25:52.172Z,11.15
2019-03-20T03:28:18.841Z,17.15
2019-03-20T03:30:45.649Z,5.40
2019-03-20T03:33:12.404Z,9.55
2019-03-20T03:35:39.223Z,10.23
2019-03-20T03:38:06.000Z,18.05
2019-03-20T03:40:32.833Z,13.43
2019-03-20T03:42:59.746Z,6.10
2019-03-20T03:45:26.437Z,14.38
2019-03-20T03:47:56.496Z,11.00
2019-03-20T03:50:23.298Z,11.70
2019-03-20T03:52:49.988Z,13.40
2019-03-20T03:55:16.673Z,10.45
2019-03-20T03:57:43.409Z,13.20
2019-03-20T04:00:11.608Z,15.18
2019-03-20T04:02:38.299Z,15.03
2019-03-20T04:05:05.112Z,14.15
2019-03-20T04:07:31.958Z,17.95
2019-03-20T04:09:58.635Z,10.70
2019-03-20T04:12:25.474Z,11.68
2019-03-20T04:14:52.281Z,8.98
2019-03-20T04:17:20.833Z,19.30
2019-03-20T04:19:47.507Z,24.07
2019-03-20T04:22:14.229Z,14.15
2019-03-20T04:24:40.894Z,22.27
2019-03-20T04:27:07.762Z,22.73
2019-03-20T04:29:34.550Z,20.97
2019-03-20T04:32:01.266Z,25.57
2019-03-20T04:34:27.934Z,20.48
2019-03-20T04:36:54.719Z,20.05
2019-03-20T04:39:21.450Z,21.02
2019-03-20T04:41:48.086Z,26.90
2019-03-20T04:44:14.769Z,27.60
2019-03-20T04:46:41.653Z,21.73
2019-03-20T04:49:08.311Z,26.48
2019-03-20T04:51:35.090Z,24.40
2019-03-20T04:54:01.798Z,31.33
2019-03-20T04:56:28.465Z,23.62
2019-03-20T04:58:55.128Z,27.17
2019-03-20T05:01:21.811Z,28.15
2019-03-20T05:03:48.499Z,30.50
2019-03-20T05:06:15.261Z,23.15
2019-03-20T05:08:42.026Z,27.55
2019-03-20T05:11:09.047Z,25.25
2019-03-20T05:13:35.709Z,31.55
2019-03-20T05:16:02.477Z,35.33
2019-03-20T05:18:29.359Z,39.13
2019-03-20T05:20:56.045Z,30.70
2019-03-20T05:23:22.736Z,30.05
2019-03-20T05:25:49.753Z,29.15
2019-03-20T05:28:16.417Z,35.05
2019-03-20T05:30:43.195Z,29.77
2019-03-20T05:33:10.314Z,32.28
2019-03-20T05:35:37.009Z,36.90
2019-03-20T05:38:03.793Z,41.20
2019-03-20T05:40:30.503Z,36.05
2019-03-20T05:42:57.157Z,36.42
2019-03-20T05:45:23.930Z,35.85
2019-03-20T05:47:50.607Z,37.73
2019-03-20T05:50:17.555Z,46.70
2019-03-20T05:52:44.335Z,42.43
2019-03-20T05:55:11.317Z,35.43
2019-03-20T05:57:37.984Z,34.50
2019-03-20T06:00:07.102Z,36.30
2019-03-20T06:02:33.786Z,32.33
2019-03-20T06:05:00.468Z,40.38
2019-03-20T06:07:27.176Z,38.17
2019-03-20T06:09:53.843Z,44.05
2019-03-20T06:12:20.515Z,31.93
2019-03-20T06:14:47.220Z,27.73
2019-03-20T06:17:13.912Z,59.10
2019-03-20T06:19:40.683Z,34.88
2019-03-20T06:22:07.502Z,41.63
2019-03-20T06:24:34.264Z,48.35
2019-03-20T06:27:01.046Z,37.53
2019-03-20T06:29:28.662Z,40.33
2019-03-20T06:31:55.330Z,39.30
2019-03-20T06:34:22.006Z,44.98
2019-03-20T06:36:48.672Z,33.63
2019-03-20T06:39:15.396Z,37.25
2019-03-20T06:41:42.075Z,41.10
2019-03-20T06:44:08.754Z,45.80
2019-03-20T06:46:35.583Z,36.15
2019-03-20T06:49:02.266Z,57.73
2019-03-20T06:51:28.946Z,36.53
2019-03-20T06:53:55.743Z,32.38
2019-03-20T06:56:22.412Z,38.55
2019-03-20T06:59:11.940Z,45.15
2019-03-20T07:01:38.723Z,34.60
2019-03-20T07:04:13.146Z,32.13
2019-03-20T07:06:53.237Z,36.20
2019-03-20T07:09:24.739Z,24.43
2019-03-20T07:11:51.434Z,48.50
2019-03-20T07:14:18.259Z,36.33
2019-03-20T07:16:45.049Z,37.93
2019-03-20T07:19:11.820Z,32.75
2019-03-20T07:21:38.502Z,22.27
2019-03-20T07:24:05.333Z,26.97
2019-03-20T07:26:32.105Z,43.23
2019-03-20T07:28:58.744Z,25.65
2019-03-20T07:31:25.629Z,24.63
2019-03-20T07:33:52.718Z,31.80
2019-03-20T07:36:19.505Z,35.33
2019-03-20T07:38:46.334Z,34.97
2019-03-20T07:41:13.430Z,45.70
2019-03-20T07:43:40.101Z,30.53
2019-03-20T07:46:08.038Z,108.83
2019-03-20T07:48:34.782Z,52.23
2019-03-20T07:51:02.014Z,67.83
2019-03-20T07:53:29.083Z,26.23
2019-03-20T07:55:56.569Z,46.37
2019-03-20T07:58:23.367Z,69.07
2019-03-20T08:00:50.044Z,67.90
2019-03-20T08:03:16.815Z,39.87
2019-03-20T08:05:43.662Z,43.80
2019-03-20T08:08:10.330Z,63.40
2019-03-20T08:10:37.199Z,65.43
2019-03-20T08:13:04.214Z,31.03
2019-03-20T08:15:32.011Z,40.17
2019-03-20T08:17:58.709Z,49.30
2019-03-20T08:20:25.602Z,35.87
2019-03-20T08:22:52.291Z,35.07
2019-03-20T08:25:19.075Z,53.33
2019-03-20T08:27:45.743Z,34.47
2019-03-20T08:30:13.919Z,86.07
2019-03-20T08:32:40.987Z,44.27
2019-03-20T08:35:07.887Z,36.83
2019-03-20T08:37:34.653Z,85.83
2019-03-20T08:40:01.442Z,39.57
2019-03-20T08:42:28.198Z,23.57
2019-03-20T08:44:56.455Z,44.83
2019-03-20T08:47:23.233Z,38.60
2019-03-20T08:49:49.905Z,59.23
2019-03-20T08:52:16.610Z,27.37
2019-03-20T08:54:43.282Z,43.77
2019-03-20T08:57:09.959Z,33.60
2019-03-20T08:59:36.879Z,28.50
2019-03-20T09:02:03.659Z,38.80
2019-03-20T09:04:30.323Z,31.23
2019-03-20T09:06:57.025Z,42.87
2019-03-20T09:09:23.690Z,28.03
2019-03-20T09:11:50.381Z,38.57
2019-03-20T09:14:17.059Z,37.47
2019-03-20T09:16:43.896Z,37.40
2019-03-20T09:19:10.582Z,24.23
2019-03-20T09:21:37.253Z,23.87
2019-03-20T09:24:04.148Z,41.20
2019-03-20T09:26:30.832Z,23.87
2019-03-20T09:28:57.520Z,33.43
2019-03-20T09:31:25.259Z,30.27
2019-03-20T09:33:52.269Z,29.57
2019-03-20T09:36:19.124Z,34.23
2019-03-20T09:38:45.790Z,33.20
2019-03-20T09:41:12.694Z,23.40
2019-03-20T09:43:39.399Z,26.83
2019-03-20T09:46:06.083Z,29.03
2019-03-20T09:48:32.776Z,33.60
2019-03-20T09:50:59.434Z,42.40
2019-03-20T09:53:27.201Z,31.03
2019-03-20T09:55:54.032Z,31.20
2019-03-20T09:58:20.893Z,20.37
2019-03-20T10:00:47.642Z,28.47
2019-03-20T10:03:14.316Z,32.13
2019-03-20T10:05:41.082Z,39.30
2019-03-20T10:08:07.899Z,36.40
2019-03-20T10:10:34.666Z,32.77
2019-03-20T10:13:01.341Z,35.57
2019-03-20T10:15:28.131Z,25.47
2019-03-20T10:17:55.117Z,27.77
2019-03-20T10:20:22.219Z,36.60
2019-03-20T10:22:49.098Z,30.50
2019-03-20T10:25:15.968Z,35.93
2019-03-20T10:27:42.932Z,41.67
2019-03-20T10:30:12.981Z,28.20
2019-03-20T10:32:39.637Z,33.47
2019-03-20T10:35:07.313Z,38.93
2019-03-20T10:37:34.016Z,31.50
2019-03-20T10:40:00.727Z,36.30
2019-03-20T10:42:27.450Z,40.00
2019-03-20T10:44:54.113Z,31.50
2019-03-20T10:47:20.777Z,38.23
2019-03-20T10:49:48.783Z,37.07
2019-03-20T10:52:15.450Z,30.63
2019-03-20T10:54:42.219Z,27.40
2019-03-20T10:57:09.025Z,48.70
2019-03-20T10:59:36.814Z,38.43
2019-03-20T11:02:03.598Z,40.97
2019-03-20T11:04:31.380Z,39.07
2019-03-20T11:06:58.091Z,40.03
2019-03-20T11:09:24.797Z,45.13
2019-03-20T11:11:51.455Z,48.53
2019-03-20T11:14:18.164Z,43.93
2019-03-20T11:16:45.069Z,52.07
2019-03-20T11:19:11.730Z,40.30
2019-03-20T11:21:38.404Z,33.27
2019-03-20T11:24:05.197Z,42.10
2019-03-20T11:26:31.914Z,29.57
2019-03-20T11:28:58.641Z,43.73
2019-03-20T11:31:25.344Z,51.03
2019-03-20T11:33:52.027Z,44.87
2019-03-20T11:36:18.829Z,53.00
2019-03-20T11:38:45.605Z,52.43
2019-03-20T11:41:12.434Z,45.50
2019-03-20T11:43:39.089Z,42.43
2019-03-20T11:46:06.978Z,52.77
2019-03-20T11:48:33.671Z,49.40
2019-03-20T11:51:01.353Z,27.47
2019-03-20T11:53:28.127Z,53.70
2019-03-20T11:55:54.869Z,33.37
2019-03-20T11:58:21.638Z,40.47
2019-03-20T12:00:48.420Z,47.73
2019-03-20T12:03:16.402Z,42.80
2019-03-20T12:05:43.065Z,54.03
2019-03-20T12:08:11.639Z,46.63
2019-03-20T12:10:38.342Z,36.00
2019-03-20T12:13:05.122Z,45.73
2019-03-20T12:15:31.874Z,37.03
2019-03-20T12:17:58.888Z,37.77
2019-03-20T12:20:25.851Z,36.37
2019-03-20T12:22:52.820Z,49.73
2019-03-20T12:25:22.045Z,42.30
2019-03-20T12:27:48.805Z,44.77
2019-03-20T12:30:17.901Z,34.67
2019-03-20T12:32:44.590Z,45.33
2019-03-20T12:35:12.083Z,33.67
2019-03-20T12:37:38.783Z,47.30
2019-03-20T12:40:09.145Z,59.90
2019-03-20T12:42:35.827Z,38.30
2019-03-20T12:45:04.246Z,42.20
2019-03-20T12:47:31.023Z,36.53
2019-03-20T12:49:57.709Z,46.80
2019-03-20T12:52:24.519Z,62.33
2019-03-20T12:54:51.193Z,70.30
2019-03-20T12:57:18.095Z,30.30
2019-03-20T12:59:44.778Z,54.33
2019-03-20T13:02:11.748Z,55.53
2019-03-20T13:04:38.441Z,34.80
2019-03-20T13:07:05.152Z,48.87
2019-03-20T13:09:31.827Z,42.07
2019-03-20T13:11:58.601Z,56.03
2019-03-20T13:14:25.300Z,44.40
2019-03-20T13:16:52.117Z,55.03
2019-03-20T13:19:18.864Z,64.97
2019-03-20T13:21:47.606Z,74.43
2019-03-20T13:24:14.146Z,49.47
2019-03-20T13:26:40.929Z,48.03
2019-03-20T13:29:08.702Z,47.00
2019-03-20T13:31:35.393Z,35.00
2019-03-20T13:34:02.079Z,56.93
2019-03-20T13:36:28.746Z,42.23
2019-03-20T13:38:56.563Z,54.10
2019-03-20T13:41:23.444Z,47.30
2019-03-20T13:43:50.258Z,59.37
2019-03-20T13:46:16.954Z,43.10
2019-03-20T13:48:43.733Z,44.73
2019-03-20T13:51:10.552Z,45.40
2019-03-20T13:53:37.359Z,60.07
2019-03-20T13:56:04.119Z,45.07
2019-03-20T13:58:30.798Z,59.27
2019-03-20T14:00:57.502Z,68.00
2019-03-20T14:03:24.178Z,48.13
2019-03-20T14:06:06.555Z,41.00
2019-03-20T14:08:33.227Z,52.50
2019-03-20T14:11:00.127Z,59.53
2019-03-20T14:13:26.890Z,53.47
2019-03-20T14:15:53.679Z,81.77
2019-03-20T14:18:20.370Z,70.33
2019-03-20T14:20:47.034Z,50.87
2019-03-20T14:23:13.837Z,47.93
2019-03-20T14:25:40.518Z,59.70
2019-03-20T14:28:07.435Z,71.50
2019-03-20T14:30:34.309Z,48.37
2019-03-20T14:33:01.081Z,57.27
2019-03-20T14:35:28.749Z,50.87
2019-03-20T14:37:55.642Z,47.53
2019-03-20T14:40:34.861Z,51.13
2019-03-20T14:42:53.283Z,68.63
2019-03-20T14:45:20.113Z,71.07
2019-03-20T14:47:47.031Z,65.47
2019-03-20T14:50:15.233Z,44.30
2019-03-20T14:52:42.161Z,78.30
2019-03-20T14:55:10.074Z,68.53
2019-03-20T14:57:36.859Z,69.23
2019-03-20T15:00:04.777Z,67.27
2019-03-20T15:02:31.770Z,59.23
2019-03-20T15:04:58.498Z,80.40
2019-03-20T15:07:25.201Z,60.07
2019-03-20T15:09:51.971Z,69.93
2019-03-20T15:12:18.651Z,79.40
2019-03-20T15:14:45.462Z,77.00
2019-03-20T15:17:12.140Z,55.50
2019-03-20T15:19:39.149Z,53.87
2019-03-20T15:22:05.822Z,44.00
2019-03-20T15:24:32.500Z,80.90
2019-03-20T15:26:59.286Z,57.43
2019-03-20T15:29:25.976Z,62.63
2019-03-20T15:31:52.914Z,56.93
2019-03-20T15:34:19.950Z,68.73
2019-03-20T15:36:47.161Z,74.07
2019-03-20T15:39:13.880Z,58.57
2019-03-20T15:41:40.557Z,78.30
2019-03-20T15:44:07.242Z,56.67
2019-03-20T15:46:34.610Z,52.03
2019-03-20T15:49:01.289Z,44.33
2019-03-20T15:51:28.043Z,62.30
2019-03-20T15:53:54.815Z,56.13
2019-03-20T15:56:21.831Z,64.00
2019-03-20T15:58:49.244Z,62.17
2019-03-20T16:01:15.968Z,67.37
2019-03-20T16:03:42.676Z,75.53
2019-03-20T16:06:09.439Z,70.10
2019-03-20T16:08:36.231Z,74.77
2019-03-20T16:11:06.860Z,67.07
2019-03-20T16:13:31.613Z,77.03
2019-03-20T16:15:59.863Z,61.93
2019-03-20T16:18:26.521Z,53.33
2019-03-20T16:20:53.331Z,72.77
2019-03-20T16:23:20.005Z,71.43
2019-03-20T16:25:46.791Z,80.10
2019-03-20T16:28:13.460Z,55.57
2019-03-20T16:30:40.146Z,62.37
2019-03-20T16:33:06.910Z,85.23
2019-03-20T16:35:33.711Z,79.23
2019-03-20T16:38:00.489Z,87.90
2019-03-20T16:40:27.441Z,73.20
2019-03-20T16:42:54.515Z,78.83
2019-03-20T16:45:23.481Z,94.43
2019-03-20T16:47:50.278Z,90.63
2019-03-20T16:50:17.265Z,82.33
2019-03-20T16:52:44.169Z,78.33
2019-03-20T16:55:11.458Z,84.23
2019-03-20T16:57:38.366Z,77.90
2019-03-20T17:00:06.542Z,83.87
2019-03-20T17:02:33.423Z,131.23
2019-03-20T17:05:00.099Z,128.33
2019-03-20T17:07:26.778Z,112.87
2019-03-20T17:09:53.578Z,86.37
2019-03-20T17:12:20.351Z,95.63
2019-03-20T17:14:47.023Z,78.77
2019-03-20T17:17:13.822Z,110.40
2019-03-20T17:19:40.522Z,121.47
2019-03-20T17:22:07.998Z,97.77
2019-03-20T17:24:34.937Z,104.70
2019-03-20T17:27:01.709Z,97.03
2019-03-20T17:29:28.385Z,79.03
2019-03-20T17:31:55.052Z,124.00
2019-03-20T17:34:21.744Z,117.90
2019-03-20T17:36:48.406Z,127.33
2019-03-20T17:39:15.087Z,126.50
2019-03-20T17:41:41.897Z,128.40
2019-03-20T17:44:08.560Z,121.70
2019-03-20T17:46:35.358Z,110.10
2019-03-20T17:49:02.262Z,121.63
2019-03-20T17:51:29.747Z,111.90
2019-03-20T17:53:56.434Z,80.63
2019-03-20T17:56:23.123Z,85.87
2019-03-20T17:58:49.920Z,84.77
2019-03-20T18:01:16.613Z,103.43
2019-03-20T18:03:43.306Z,109.43
2019-03-20T18:06:10.002Z,114.30
2019-03-20T18:08:36.674Z,64.13
2019-03-20T18:11:03.462Z,93.87
2019-03-20T18:13:30.173Z,89.90
2019-03-20T18:15:56.942Z,125.50
2019-03-20T18:18:23.610Z,108.57
2019-03-20T18:20:50.401Z,115.03
2019-03-20T18:23:17.217Z,109.77
2019-03-20T18:25:44.071Z,83.60
2019-03-20T18:28:10.767Z,108.43
2019-03-20T18:30:38.679Z,90.30
2019-03-20T18:33:05.552Z,106.93
2019-03-20T18:35:32.383Z,99.00
2019-03-20T18:37:59.214Z,98.93
2019-03-20T18:40:26.460Z,99.70
2019-03-20T18:42:53.260Z,95.77
2019-03-20T18:45:20.098Z,94.90
2019-03-20T18:47:46.874Z,61.30
2019-03-20T18:50:14.614Z,84.87
2019-03-20T18:52:41.420Z,104.10
2019-03-20T18:55:08.991Z,103.00
2019-03-20T18:57:35.887Z,93.13
2019-03-20T19:00:03.861Z,91.20
2019-03-20T19:02:31.802Z,50.37
2019-03-20T19:04:58.492Z,91.63
2019-03-20T19:07:25.199Z,94.90
2019-03-20T19:09:52.014Z,79.83
2019-03-20T19:12:18.699Z,95.30
2019-03-20T19:14:45.376Z,82.53
2019-03-20T19:17:12.151Z,107.73
2019-03-20T19:19:39.078Z,105.13
2019-03-20T19:22:05.939Z,74.20
2019-03-20T19:24:32.622Z,83.77
2019-03-20T19:26:59.875Z,96.37
2019-03-20T19:29:26.534Z,91.40
2019-03-20T19:31:55.672Z,101.33
2019-03-20T19:34:23.132Z,92.53
2019-03-20T19:36:49.891Z,85.53
2019-03-20T19:39:16.796Z,105.00
2019-03-20T19:45:30.601Z,91.67
2019-03-20T19:47:57.812Z,100.17
2019-03-20T19:50:25.570Z,97.07
2019-03-20T19:52:52.245Z,97.23
2019-03-20T19:55:19.374Z,98.63
2019-03-20T19:57:46.168Z,92.20
2019-03-20T20:00:13.825Z,98.53
2019-03-20T20:02:40.707Z,108.70
2019-03-20T20:05:15.781Z,101.50
2019-03-20T20:07:36.550Z,106.20
2019-03-20T20:10:04.330Z,97.33
2019-03-20T20:12:31.727Z,108.67
2019-03-20T20:14:58.402Z,99.80
2019-03-20T20:17:25.185Z,110.90
2019-03-20T20:19:51.901Z,102.67
2019-03-20T20:22:18.697Z,92.90
2019-03-20T20:24:45.395Z,105.00
2019-03-20T20:27:12.545Z,107.30
2019-03-20T20:29:39.289Z,94.03
2019-03-20T20:32:06.337Z,104.13
2019-03-20T20:34:33.300Z,102.27
2019-03-20T20:37:00.089Z,114.00
2019-03-20T20:39:26.788Z,100.10
2019-03-20T20:41:53.935Z,93.60
2019-03-20T20:44:20.639Z,110.77
2019-03-20T20:46:47.319Z,91.70
2019-03-20T20:49:13.986Z,110.07
2019-03-20T20:51:40.757Z,100.53
2019-03-20T20:54:08.311Z,108.13
2019-03-20T20:56:34.997Z,107.20
2019-03-20T20:59:01.778Z,115.63
2019-03-20T21:01:30.204Z,273.57
2019-03-20T21:03:57.939Z,104.03
2019-03-20T21:06:24.627Z,99.80
2019-03-20T21:08:51.329Z,102.07
2019-03-20T21:11:17.995Z,104.53
2019-03-20T21:13:44.668Z,132.43
2019-03-20T21:16:11.876Z,93.50
2019-03-20T21:19:19.521Z,109.80
2019-03-20T21:22:33.025Z,98.50
2019-03-20T21:25:00.485Z,84.27
2019-03-20T21:27:55.082Z,86.90
2019-03-20T21:30:54.134Z,98.63
2019-03-20T21:34:08.313Z,92.27
2019-03-20T21:37:24.721Z,87.03
2019-03-20T21:39:52.251Z,107.93
2019-03-20T21:43:06.496Z,92.30
2019-03-20T21:46:00.347Z,90.70
2019-03-20T21:48:27.577Z,102.67
2019-03-20T21:51:24.940Z,97.40
2019-03-20T21:54:33.518Z,82.43
2019-03-20T21:57:47.094Z,88.83
2019-03-20T22:00:43.269Z,94.30
2019-03-20T22:03:10.574Z,91.60
2019-03-20T22:06:18.826Z,90.80
2019-03-20T22:08:46.779Z,104.37
2019-03-20T22:11:57.319Z,97.40
2019-03-20T22:14:24.651Z,98.70
2019-03-20T22:17:50.686Z,105.80
2019-03-20T22:20:25.175Z,103.10
2019-03-20T22:23:22.591Z,111.40
2019-03-20T22:26:49.321Z,102.30
2019-03-20T22:29:24.078Z,106.43
2019-03-20T22:32:47.833Z,96.93
2019-03-20T22:35:50.626Z,101.90
2019-03-20T22:38:41.107Z,109.00
2019-03-20T22:41:45.983Z,89.87
2019-03-20T22:44:15.161Z,97.10
2019-03-20T22:47:32.292Z,103.20
2019-03-20T22:50:11.310Z,90.87
2019-03-20T22:53:21.376Z,104.77
2019-03-20T22:56:24.247Z,124.77
2019-03-20T22:58:51.443Z,107.33
2019-03-20T23:01:29.966Z,76.30
2019-03-20T23:04:05.197Z,95.00
2019-03-20T23:06:32.618Z,103.37
2019-03-20T23:08:59.829Z,101.43
2019-03-20T23:11:27.042Z,87.53
2019-03-20T23:13:54.336Z,86.63
2019-03-20T23:16:21.930Z,119.83
2019-03-20T23:18:50.247Z,108.27
2019-03-20T23:21:17.677Z,108.80
2019-03-20T23:23:44.898Z,105.97
2019-03-20T23:26:12.984Z,104.53
2019-03-20T23:28:40.777Z,97.30
2019-03-20T23:31:07.986Z,139.03
2019-03-20T23:33:35.657Z,98.47
2019-03-20T23:36:02.978Z,101.00
2019-03-20T23:38:30.303Z,117.20
2019-03-20T23:40:57.601Z,88.53
2019-03-20T23:43:25.002Z,132.13
2019-03-20T23:45:52.194Z,121.17
2019-03-20T23:48:43.888Z,118.30
2019-03-20T23:51:15.023Z,111.70
2019-03-20T23:53:45.781Z,112.47
2019-03-20T23:56:13.252Z,114.67
2019-03-20T23:58:40.553Z,124.00
